sensor_id;sensor_type;location;lat;lon;timestamp;pressure;altitude;pressure_sealevel;temperature;humidity
16544;BME280;8384;47.996;7.786;2023-01-30T00:01:15;99589.34;;;-3.40;90.56
16544;BME280;8384;47.996;7.786;2023-01-30T00:03:41;99660.81;;;-3.14;89.60
16544;BME280;8384;47.996;7.786;2023-01-30T00:06:06;99665.63;;;-2.99;90.68
16544;BME280;8384;47.996;7.786;2023-01-30T00:08:31;99516.81;;;-3.73;89.26
16544;BME280;8384;47.996;7.786;2023-01-30T00:11:04;99628.06;;;-2.98;88.25
16544;BME280;8384;47.996;7.786;2023-01-30T00:13:30;99607.78;;;-3.01;87.79
16544;BME280;8384;47.996;7.786;2023-01-30T00:15:55;99566.91;;;-3.11;86.86
16544;BME280;8384;47.996;7.786;2023-01-30T00:18:20;99594.78;;;-2.95;87.24
16544;BME280;8384;47.996;7.786;2023-01-30T00:20:46;99586.41;;;-3.19;87.92
16544;BME280;8384;47.996;7.786;2023-01-30T00:23:11;99602.06;;;-3.06;88.66
16544;BME280;8384;47.996;7.786;2023-01-30T00:25:36;99593.88;;;-2.86;87.74
16544;BME280;8384;47.996;7.786;2023-01-30T00:28:02;99535.41;;;-3.35;87.91
16544;BME280;8384;47.996;7.786;2023-01-30T00:30:27;99495.84;;;-3.32;87.80
16544;BME280;8384;47.996;7.786;2023-01-30T00:32:55;99591.09;;;-2.58;88.12
16544;BME280;8384;47.996;7.786;2023-01-30T00:35:20;99521.09;;;-2.90;89.02
16544;BME280;8384;47.996;7.786;2023-01-30T00:37:46;99526.72;;;-2.75;87.87
16544;BME280;8384;47.996;7.786;2023-01-30T00:40:11;99591.81;;;-2.30;87.48
16544;BME280;8384;47.996;7.786;2023-01-30T00:42:36;99514.75;;;-2.44;87.38
16544;BME280;8384;47.996;7.786;2023-01-30T00:45:22;99533.25;;;-2.24;86.13
16544;BME280;8384;47.996;7.786;2023-01-30T00:48:06;99497.88;;;-2.36;85.50
16544;BME280;8384;47.996;7.786;2023-01-30T00:50:31;99565.81;;;-1.76;85.44
16544;BME280;8384;47.996;7.786;2023-01-30T00:53:11;99491.88;;;-1.96;84.16
16544;BME280;8384;47.996;7.786;2023-01-30T00:55:37;99479.25;;;-2.12;84.52
16544;BME280;8384;47.996;7.786;2023-01-30T00:58:02;99432.31;;;-2.32;83.97
16544;BME280;8384;47.996;7.786;2023-01-30T01:00:28;99472.41;;;-2.06;83.74
16544;BME280;8384;47.996;7.786;2023-01-30T01:02:53;99511.88;;;-1.82;83.35
16544;BME280;8384;47.996;7.786;2023-01-30T01:05:18;99532.75;;;-1.42;82.72
16544;BME280;8384;47.996;7.786;2023-01-30T01:07:44;99503.50;;;-1.70;82.84
16544;BME280;8384;47.996;7.786;2023-01-30T01:10:09;99537.81;;;-1.31;82.55
16544;BME280;8384;47.996;7.786;2023-01-30T01:12:43;99537.50;;;-1.11;82.28
16544;BME280;8384;47.996;7.786;2023-01-30T01:15:12;99549.41;;;-1.14;82.03
16544;BME280;8384;47.996;7.786;2023-01-30T01:17:39;99546.19;;;-1.17;82.02
16544;BME280;8384;47.996;7.786;2023-01-30T01:20:06;99543.69;;;-1.19;81.53
16544;BME280;8384;47.996;7.786;2023-01-30T01:22:32;99484.78;;;-1.45;81.71
16544;BME280;8384;47.996;7.786;2023-01-30T01:24:57;99498.41;;;-1.39;81.27
16544;BME280;8384;47.996;7.786;2023-01-30T01:27:22;99492.53;;;-1.51;81.72
16544;BME280;8384;47.996;7.786;2023-01-30T01:29:48;99590.69;;;-1.07;82.48
16544;BME280;8384;47.996;7.786;2023-01-30T01:32:13;99565.66;;;-1.24;81.98
16544;BME280;8384;47.996;7.786;2023-01-30T01:34:38;99603.91;;;-1.05;81.70
16544;BME280;8384;47.996;7.786;2023-01-30T01:37:03;99614.47;;;-1.12;82.16
16544;BME280;8384;47.996;7.786;2023-01-30T01:39:29;99626.69;;;-1.17;82.38
16544;BME280;8384;47.996;7.786;2023-01-30T01:42:14;99657.25;;;-1.02;81.95
16544;BME280;8384;47.996;7.786;2023-01-30T01:47:34;99680.88;;;-1.06;81.97
16544;BME280;8384;47.996;7.786;2023-01-30T01:50:01;99607.16;;;-1.79;82.76
16544;BME280;8384;47.996;7.786;2023-01-30T01:52:28;99726.00;;;-1.09;81.97
16544;BME280;8384;47.996;7.786;2023-01-30T01:54:58;99728.03;;;-1.03;82.64
16544;BME280;8384;47.996;7.786;2023-01-30T01:57:32;99723.25;;;-1.17;82.58
16544;BME280;8384;47.996;7.786;2023-01-30T02:00:05;99715.16;;;-1.34;83.40
16544;BME280;8384;47.996;7.786;2023-01-30T02:02:35;99646.63;;;-1.63;83.12
16544;BME280;8384;47.996;7.786;2023-01-30T02:05:01;99712.16;;;-1.31;83.00
16544;BME280;8384;47.996;7.786;2023-01-30T02:07:40;99668.81;;;-1.44;83.27
16544;BME280;8384;47.996;7.786;2023-01-30T02:10:12;99644.69;;;-1.79;83.71
16544;BME280;8384;47.996;7.786;2023-01-30T02:12:38;99710.09;;;-1.37;84.05
16544;BME280;8384;47.996;7.786;2023-01-30T02:15:05;99610.78;;;-1.97;83.72
16544;BME280;8384;47.996;7.786;2023-01-30T02:17:30;99687.81;;;-1.38;83.86
16544;BME280;8384;47.996;7.786;2023-01-30T02:23:00;99692.00;;;-1.35;83.82
16544;BME280;8384;47.996;7.786;2023-01-30T02:26:05;99682.38;;;-1.19;82.80
16544;BME280;8384;47.996;7.786;2023-01-30T02:29:01;99684.13;;;-1.37;83.68
16544;BME280;8384;47.996;7.786;2023-01-30T02:31:49;99660.59;;;-1.51;83.50
16544;BME280;8384;47.996;7.786;2023-01-30T02:34:21;99706.28;;;-1.34;83.40
16544;BME280;8384;47.996;7.786;2023-01-30T02:39:35;99675.31;;;-1.21;83.10
16544;BME280;8384;47.996;7.786;2023-01-30T02:42:36;99594.06;;;-1.90;83.19
16544;BME280;8384;47.996;7.786;2023-01-30T02:45:35;99681.28;;;-1.35;83.21
16544;BME280;8384;47.996;7.786;2023-01-30T02:48:03;99652.53;;;-1.51;83.03
16544;BME280;8384;47.996;7.786;2023-01-30T02:50:44;99663.47;;;-1.44;83.65
16544;BME280;8384;47.996;7.786;2023-01-30T02:53:12;99595.78;;;-1.81;83.81
16544;BME280;8384;47.996;7.786;2023-01-30T02:55:39;99632.28;;;-1.54;83.92
16544;BME280;8384;47.996;7.786;2023-01-30T02:58:05;99654.09;;;-1.48;83.33
16544;BME280;8384;47.996;7.786;2023-01-30T03:09:12;99667.59;;;-1.24;82.75
16544;BME280;8384;47.996;7.786;2023-01-30T03:12:03;99647.47;;;-1.28;82.29
16544;BME280;8384;47.996;7.786;2023-01-30T03:14:56;99618.09;;;-1.38;82.30
16544;BME280;8384;47.996;7.786;2023-01-30T03:17:25;99569.41;;;-1.94;83.18
16544;BME280;8384;47.996;7.786;2023-01-30T03:19:52;99663.69;;;-1.38;82.70
16544;BME280;8384;47.996;7.786;2023-01-30T03:22:19;99627.94;;;-1.46;82.90
16544;BME280;8384;47.996;7.786;2023-01-30T03:24:45;99609.31;;;-1.48;82.07
16544;BME280;8384;47.996;7.786;2023-01-30T03:27:11;99504.50;;;-2.22;81.87
16544;BME280;8384;47.996;7.786;2023-01-30T03:29:37;99602.72;;;-1.62;82.44
16544;BME280;8384;47.996;7.786;2023-01-30T03:32:03;99607.28;;;-1.62;82.52
16544;BME280;8384;47.996;7.786;2023-01-30T03:34:28;99590.94;;;-1.77;82.99
16544;BME280;8384;47.996;7.786;2023-01-30T03:36:54;99627.81;;;-1.37;82.18
16544;BME280;8384;47.996;7.786;2023-01-30T03:39:20;99613.09;;;-1.32;82.13
16544;BME280;8384;47.996;7.786;2023-01-30T03:41:46;99606.16;;;-1.43;81.51
16544;BME280;8384;47.996;7.786;2023-01-30T03:44:12;99501.13;;;-2.24;82.29
16544;BME280;8384;47.996;7.786;2023-01-30T03:46:37;99627.06;;;-1.55;82.71
16544;BME280;8384;47.996;7.786;2023-01-30T03:49:02;99588.38;;;-1.53;81.79
16544;BME280;8384;47.996;7.786;2023-01-30T03:51:27;99589.78;;;-1.75;81.95
16544;BME280;8384;47.996;7.786;2023-01-30T03:53:53;99567.38;;;-1.66;81.10
16544;BME280;8384;47.996;7.786;2023-01-30T03:56:18;99589.72;;;-1.48;80.52
16544;BME280;8384;47.996;7.786;2023-01-30T03:58:43;99525.63;;;-1.68;80.46
16544;BME280;8384;47.996;7.786;2023-01-30T04:01:09;99582.03;;;-1.35;80.46
16544;BME280;8384;47.996;7.786;2023-01-30T04:03:34;99576.31;;;-1.40;80.17
16544;BME280;8384;47.996;7.786;2023-01-30T04:06:02;99496.50;;;-1.63;79.75
16544;BME280;8384;47.996;7.786;2023-01-30T04:08:27;99554.03;;;-1.41;80.00
16544;BME280;8384;47.996;7.786;2023-01-30T04:10:53;99471.25;;;-2.03;80.63
16544;BME280;8384;47.996;7.786;2023-01-30T04:13:18;99502.44;;;-1.94;80.80
16544;BME280;8384;47.996;7.786;2023-01-30T04:15:43;99577.31;;;-1.41;80.43
16544;BME280;8384;47.996;7.786;2023-01-30T04:18:09;99493.59;;;-1.86;80.11
16544;BME280;8384;47.996;7.786;2023-01-30T04:20:34;99503.81;;;-1.82;79.96
16544;BME280;8384;47.996;7.786;2023-01-30T04:22:59;99573.34;;;-1.29;79.66
16544;BME280;8384;47.996;7.786;2023-01-30T04:25:24;99574.03;;;-1.27;79.99
16544;BME280;8384;47.996;7.786;2023-01-30T04:27:50;99490.34;;;-1.98;80.37
16544;BME280;8384;47.996;7.786;2023-01-30T04:30:15;99521.91;;;-1.84;80.42
16544;BME280;8384;47.996;7.786;2023-01-30T04:32:41;99602.50;;;-1.34;80.81
16544;BME280;8384;47.996;7.786;2023-01-30T04:35:06;99536.97;;;-1.83;80.81
16544;BME280;8384;47.996;7.786;2023-01-30T04:37:31;99597.00;;;-1.24;80.91
16544;BME280;8384;47.996;7.786;2023-01-30T04:39:57;99604.00;;;-1.31;81.66
16544;BME280;8384;47.996;7.786;2023-01-30T04:42:22;99611.19;;;-1.40;81.79
16544;BME280;8384;47.996;7.786;2023-01-30T04:44:47;99589.88;;;-1.50;80.83
16544;BME280;8384;47.996;7.786;2023-01-30T04:47:12;99630.03;;;-1.24;81.06
16544;BME280;8384;47.996;7.786;2023-01-30T04:49:38;99616.38;;;-1.47;80.97
16544;BME280;8384;47.996;7.786;2023-01-30T04:52:03;99627.00;;;-1.29;80.82
16544;BME280;8384;47.996;7.786;2023-01-30T04:54:31;99635.03;;;-1.29;80.99
16544;BME280;8384;47.996;7.786;2023-01-30T04:56:57;99573.88;;;-1.68;81.13
16544;BME280;8384;47.996;7.786;2023-01-30T04:59:22;99574.44;;;-1.56;81.13
16544;BME280;8384;47.996;7.786;2023-01-30T05:01:48;99543.38;;;-1.75;81.21
16544;BME280;8384;47.996;7.786;2023-01-30T05:04:13;99575.31;;;-1.82;81.82
16544;BME280;8384;47.996;7.786;2023-01-30T05:06:38;99572.09;;;-1.94;82.25
16544;BME280;8384;47.996;7.786;2023-01-30T05:09:04;99620.78;;;-1.38;81.53
16544;BME280;8384;47.996;7.786;2023-01-30T05:11:29;99560.34;;;-1.67;80.99
16544;BME280;8384;47.996;7.786;2023-01-30T05:13:56;99532.34;;;-1.72;81.47
16544;BME280;8384;47.996;7.786;2023-01-30T05:16:22;99562.69;;;-1.55;81.07
16544;BME280;8384;47.996;7.786;2023-01-30T05:18:47;99619.63;;;-1.27;80.76
16544;BME280;8384;47.996;7.786;2023-01-30T05:21:18;99647.78;;;-1.31;80.63
16544;BME280;8384;47.996;7.786;2023-01-30T05:23:44;99653.16;;;-1.31;80.80
16544;BME280;8384;47.996;7.786;2023-01-30T05:26:10;99599.50;;;-1.74;80.94
16544;BME280;8384;47.996;7.786;2023-01-30T05:28:36;99626.53;;;-1.59;80.63
16544;BME280;8384;47.996;7.786;2023-01-30T05:31:09;99619.91;;;-1.46;80.72
16544;BME280;8384;47.996;7.786;2023-01-30T05:33:36;99630.19;;;-1.33;80.83
16544;BME280;8384;47.996;7.786;2023-01-30T05:36:01;99633.50;;;-1.31;80.78
16544;BME280;8384;47.996;7.786;2023-01-30T05:38:27;99613.88;;;-1.48;80.74
16544;BME280;8384;47.996;7.786;2023-01-30T05:41:04;99600.59;;;-1.50;80.51
16544;BME280;8384;47.996;7.786;2023-01-30T05:43:30;99659.78;;;-1.43;80.93
16544;BME280;8384;47.996;7.786;2023-01-30T05:45:56;99645.28;;;-1.32;81.36
16544;BME280;8384;47.996;7.786;2023-01-30T05:48:23;99636.72;;;-1.28;80.34
16544;BME280;8384;47.996;7.786;2023-01-30T05:50:50;99605.31;;;-1.44;80.15
16544;BME280;8384;47.996;7.786;2023-01-30T05:53:16;99559.16;;;-1.72;80.25
16544;BME280;8384;47.996;7.786;2023-01-30T05:55:42;99557.78;;;-1.68;80.13
16544;BME280;8384;47.996;7.786;2023-01-30T05:58:08;99511.22;;;-1.75;79.47
16544;BME280;8384;47.996;7.786;2023-01-30T06:00:33;99602.53;;;-1.17;79.40
16544;BME280;8384;47.996;7.786;2023-01-30T06:02:59;99559.25;;;-1.31;79.49
16544;BME280;8384;47.996;7.786;2023-01-30T06:05:24;99500.72;;;-1.60;79.06
16544;BME280;8384;47.996;7.786;2023-01-30T06:07:49;99545.47;;;-1.44;79.58
16544;BME280;8384;47.996;7.786;2023-01-30T06:10:15;99547.44;;;-1.63;79.47
16544;BME280;8384;47.996;7.786;2023-01-30T06:12:41;99611.13;;;-1.06;79.00
16544;BME280;8384;47.996;7.786;2023-01-30T06:15:06;99548.50;;;-1.47;79.09
16544;BME280;8384;47.996;7.786;2023-01-30T06:17:32;99546.34;;;-1.27;78.58
16544;BME280;8384;47.996;7.786;2023-01-30T06:19:57;99561.59;;;-1.36;78.20
16544;BME280;8384;47.996;7.786;2023-01-30T06:22:22;99552.91;;;-1.30;78.09
16544;BME280;8384;47.996;7.786;2023-01-30T06:24:48;99520.13;;;-1.58;78.56
16544;BME280;8384;47.996;7.786;2023-01-30T06:27:16;99602.56;;;-1.09;78.31
16544;BME280;8384;47.996;7.786;2023-01-30T06:29:41;99590.34;;;-1.12;78.50
16544;BME280;8384;47.996;7.786;2023-01-30T06:32:06;99612.13;;;-1.15;79.02
16544;BME280;8384;47.996;7.786;2023-01-30T06:34:34;99584.25;;;-1.22;78.13
16544;BME280;8384;47.996;7.786;2023-01-30T06:37:02;99537.78;;;-1.47;77.92
16544;BME280;8384;47.996;7.786;2023-01-30T06:39:29;99572.72;;;-1.23;77.55
16544;BME280;8384;47.996;7.786;2023-01-30T06:41:56;99511.63;;;-1.54;77.76
16544;BME280;8384;47.996;7.786;2023-01-30T06:44:21;99529.88;;;-1.49;77.68
16544;BME280;8384;47.996;7.786;2023-01-30T06:46:46;99599.88;;;-1.09;78.30
16544;BME280;8384;47.996;7.786;2023-01-30T06:49:12;99602.75;;;-1.02;77.63
16544;BME280;8384;47.996;7.786;2023-01-30T06:51:37;99613.81;;;-1.14;78.36
16544;BME280;8384;47.996;7.786;2023-01-30T06:54:02;99581.94;;;-1.00;77.66
16544;BME280;8384;47.996;7.786;2023-01-30T06:56:28;99549.03;;;-1.36;77.66
16544;BME280;8384;47.996;7.786;2023-01-30T06:58:53;99586.13;;;-1.14;77.49
16544;BME280;8384;47.996;7.786;2023-01-30T07:01:18;99581.63;;;-0.97;76.93
16544;BME280;8384;47.996;7.786;2023-01-30T07:03:45;99581.47;;;-0.96;77.07
16544;BME280;8384;47.996;7.786;2023-01-30T07:06:11;99555.94;;;-1.16;77.15
16544;BME280;8384;47.996;7.786;2023-01-30T07:08:36;99608.13;;;-1.11;77.85
16544;BME280;8384;47.996;7.786;2023-01-30T07:11:03;99576.91;;;-1.03;76.91
16544;BME280;8384;47.996;7.786;2023-01-30T07:13:29;99578.75;;;-1.21;77.03
16544;BME280;8384;47.996;7.786;2023-01-30T07:15:54;99586.50;;;-1.01;76.67
16544;BME280;8384;47.996;7.786;2023-01-30T07:18:19;99546.69;;;-1.30;76.96
16544;BME280;8384;47.996;7.786;2023-01-30T07:20:46;99563.66;;;-1.05;76.84
16544;BME280;8384;47.996;7.786;2023-01-30T07:23:11;99572.91;;;-1.08;77.27
16544;BME280;8384;47.996;7.786;2023-01-30T07:25:36;99544.91;;;-0.97;76.65
16544;BME280;8384;47.996;7.786;2023-01-30T07:28:02;99426.75;;;-1.88;76.74
16544;BME280;8384;47.996;7.786;2023-01-30T07:30:30;99537.00;;;-1.15;77.26
16544;BME280;8384;47.996;7.786;2023-01-30T07:32:57;99577.59;;;-0.93;76.97
16544;BME280;8384;47.996;7.786;2023-01-30T07:35:23;99575.44;;;-0.98;76.98
16544;BME280;8384;47.996;7.786;2023-01-30T07:37:49;99500.88;;;-1.45;76.87
16544;BME280;8384;47.996;7.786;2023-01-30T07:40:15;99586.34;;;-0.91;77.35
16544;BME280;8384;47.996;7.786;2023-01-30T07:42:41;99499.22;;;-1.55;77.57
16544;BME280;8384;47.996;7.786;2023-01-30T07:45:07;99567.88;;;-0.94;77.08
16544;BME280;8384;47.996;7.786;2023-01-30T07:47:33;99548.56;;;-1.06;77.19
16544;BME280;8384;47.996;7.786;2023-01-30T07:49:58;99609.97;;;-0.86;77.19
16544;BME280;8384;47.996;7.786;2023-01-30T07:52:23;99605.63;;;-0.87;77.26
16544;BME280;8384;47.996;7.786;2023-01-30T07:54:48;99606.81;;;-0.73;77.26
16544;BME280;8384;47.996;7.786;2023-01-30T07:57:14;99621.44;;;-0.68;76.46
16544;BME280;8384;47.996;7.786;2023-01-30T07:59:39;99604.13;;;-0.82;76.53
16544;BME280;8384;47.996;7.786;2023-01-30T08:02:05;99632.19;;;-0.68;76.94
16544;BME280;8384;47.996;7.786;2023-01-30T08:04:32;99587.34;;;-0.92;77.36
16544;BME280;8384;47.996;7.786;2023-01-30T08:06:58;99566.53;;;-0.73;76.26
16544;BME280;8384;47.996;7.786;2023-01-30T08:09:23;99630.16;;;-0.33;76.48
16544;BME280;8384;47.996;7.786;2023-01-30T08:11:48;99541.53;;;-0.82;76.50
16544;BME280;8384;47.996;7.786;2023-01-30T08:14:14;99624.28;;;-0.36;76.40
16544;BME280;8384;47.996;7.786;2023-01-30T08:16:39;99627.66;;;-0.34;76.16
16544;BME280;8384;47.996;7.786;2023-01-30T08:19:04;99668.28;;;-0.37;76.63
16544;BME280;8384;47.996;7.786;2023-01-30T08:21:30;99595.59;;;-0.44;76.77
16544;BME280;8384;47.996;7.786;2023-01-30T08:23:55;99594.06;;;-0.30;76.34
16544;BME280;8384;47.996;7.786;2023-01-30T08:26:21;99570.75;;;-0.46;76.63
16544;BME280;8384;47.996;7.786;2023-01-30T08:28:46;99594.75;;;-0.36;76.47
16544;BME280;8384;47.996;7.786;2023-01-30T08:31:13;99589.00;;;-0.25;75.85
16544;BME280;8384;47.996;7.786;2023-01-30T08:33:38;99610.00;;;-0.20;75.33
16544;BME280;8384;47.996;7.786;2023-01-30T08:36:04;99575.63;;;-0.58;75.90
16544;BME280;8384;47.996;7.786;2023-01-30T08:38:29;99595.41;;;-0.34;75.25
16544;BME280;8384;47.996;7.786;2023-01-30T08:40:54;99622.44;;;-0.19;74.67
16544;BME280;8384;47.996;7.786;2023-01-30T08:43:22;99563.53;;;-0.62;74.10
16544;BME280;8384;47.996;7.786;2023-01-30T08:45:47;99611.19;;;-0.31;74.47
16544;BME280;8384;47.996;7.786;2023-01-30T08:48:13;99592.88;;;-0.36;73.88
16544;BME280;8384;47.996;7.786;2023-01-30T08:50:38;99632.34;;;-0.28;74.79
16544;BME280;8384;47.996;7.786;2023-01-30T08:53:07;99662.03;;;-0.13;74.67
16544;BME280;8384;47.996;7.786;2023-01-30T08:55:34;99660.38;;;-0.14;74.33
16544;BME280;8384;47.996;7.786;2023-01-30T08:57:59;99636.88;;;-0.37;74.13
16544;BME280;8384;47.996;7.786;2023-01-30T09:00:26;99567.38;;;-0.65;73.58
16544;BME280;8384;47.996;7.786;2023-01-30T09:02:55;99568.72;;;-0.77;74.34
16544;BME280;8384;47.996;7.786;2023-01-30T09:05:20;99657.84;;;-0.24;73.45
16544;BME280;8384;47.996;7.786;2023-01-30T09:07:46;99605.13;;;-0.25;73.40
16544;BME280;8384;47.996;7.786;2023-01-30T09:10:11;99596.09;;;-0.32;73.46
16544;BME280;8384;47.996;7.786;2023-01-30T09:12:36;99638.69;;;0.04;73.66
16544;BME280;8384;47.996;7.786;2023-01-30T09:15:02;99628.63;;;-0.19;73.41
16544;BME280;8384;47.996;7.786;2023-01-30T09:17:28;99616.38;;;-0.29;73.68
16544;BME280;8384;47.996;7.786;2023-01-30T09:19:53;99626.97;;;-0.36;74.20
16544;BME280;8384;47.996;7.786;2023-01-30T09:22:18;99618.25;;;-0.30;74.25
16544;BME280;8384;47.996;7.786;2023-01-30T09:24:43;99653.97;;;0.12;73.45
16544;BME280;8384;47.996;7.786;2023-01-30T09:27:09;99581.63;;;-0.39;73.90
16544;BME280;8384;47.996;7.786;2023-01-30T09:29:34;99648.91;;;0.17;73.63
16544;BME280;8384;47.996;7.786;2023-01-30T09:31:59;99565.84;;;-0.51;73.96
16544;BME280;8384;47.996;7.786;2023-01-30T09:34:26;99605.09;;;0.00;73.57
16544;BME280;8384;47.996;7.786;2023-01-30T09:36:54;99704.38;;;0.02;73.50
16544;BME280;8384;47.996;7.786;2023-01-30T09:39:19;99586.81;;;-0.38;73.78
16544;BME280;8384;47.996;7.786;2023-01-30T09:42:06;99640.16;;;0.23;73.46
16544;BME280;8384;47.996;7.786;2023-01-30T09:45:02;99603.63;;;-0.27;74.04
16544;BME280;8384;47.996;7.786;2023-01-30T09:50:29;99626.03;;;0.21;72.90
16544;BME280;8384;47.996;7.786;2023-01-30T09:53:13;99631.94;;;0.08;73.63
16544;BME280;8384;47.996;7.786;2023-01-30T09:55:41;99625.09;;;0.06;73.51
16544;BME280;8384;47.996;7.786;2023-01-30T09:58:12;99610.56;;;0.23;73.64
16544;BME280;8384;47.996;7.786;2023-01-30T10:00:40;99585.81;;;-0.20;73.46
16544;BME280;8384;47.996;7.786;2023-01-30T10:05:46;99634.72;;;0.40;73.18
16544;BME280;8384;47.996;7.786;2023-01-30T10:19:58;99633.09;;;0.22;73.18
16544;BME280;8384;47.996;7.786;2023-01-30T10:22:39;99627.19;;;0.35;72.98
16544;BME280;8384;47.996;7.786;2023-01-30T10:25:25;99627.56;;;0.24;73.92
16544;BME280;8384;47.996;7.786;2023-01-30T10:28:05;99601.75;;;0.46;73.26
16544;BME280;8384;47.996;7.786;2023-01-30T10:30:34;99607.19;;;0.29;73.27
16544;BME280;8384;47.996;7.786;2023-01-30T10:33:16;99538.16;;;0.22;73.49
16544;BME280;8384;47.996;7.786;2023-01-30T10:35:42;99609.44;;;0.66;72.56
16544;BME280;8384;47.996;7.786;2023-01-30T10:38:16;99570.91;;;0.65;71.90
16544;BME280;8384;47.996;7.786;2023-01-30T10:40:56;99610.69;;;0.78;71.96
16544;BME280;8384;47.996;7.786;2023-01-30T10:43:45;99586.19;;;0.96;70.67
16544;BME280;8384;47.996;7.786;2023-01-30T10:51:55;99551.72;;;1.91;67.44
16544;BME280;8384;47.996;7.786;2023-01-30T10:54:36;99564.00;;;1.79;67.51
16544;BME280;8384;47.996;7.786;2023-01-30T10:57:38;99561.59;;;1.84;68.26
16544;BME280;8384;47.996;7.786;2023-01-30T11:03:19;99534.91;;;1.36;70.41
16544;BME280;8384;47.996;7.786;2023-01-30T11:05:48;99554.69;;;1.05;70.33
16544;BME280;8384;47.996;7.786;2023-01-30T11:08:23;99543.41;;;1.25;70.92
16544;BME280;8384;47.996;7.786;2023-01-30T11:10:49;99548.16;;;1.61;69.81
16544;BME280;8384;47.996;7.786;2023-01-30T11:15:45;99504.00;;;1.47;68.36
16544;BME280;8384;47.996;7.786;2023-01-30T11:18:11;99556.81;;;1.86;68.42
16544;BME280;8384;47.996;7.786;2023-01-30T11:20:39;99542.31;;;2.32;67.49
16544;BME280;8384;47.996;7.786;2023-01-30T11:23:25;99467.22;;;1.39;69.00
16544;BME280;8384;47.996;7.786;2023-01-30T11:25:56;99524.84;;;2.13;68.35
16544;BME280;8384;47.996;7.786;2023-01-30T11:28:23;99527.81;;;2.33;67.57
16544;BME280;8384;47.996;7.786;2023-01-30T11:30:53;99456.34;;;1.62;69.05
16544;BME280;8384;47.996;7.786;2023-01-30T11:33:20;99392.59;;;1.40;68.20
16544;BME280;8384;47.996;7.786;2023-01-30T11:36:38;99507.28;;;1.87;68.98
16544;BME280;8384;47.996;7.786;2023-01-30T11:38:56;99470.00;;;1.91;68.23
16544;BME280;8384;47.996;7.786;2023-01-30T11:41:21;99500.50;;;1.76;68.88
16544;BME280;8384;47.996;7.786;2023-01-30T11:43:47;99492.25;;;1.78;69.40
16544;BME280;8384;47.996;7.786;2023-01-30T11:46:16;99505.06;;;1.76;70.26
16544;BME280;8384;47.996;7.786;2023-01-30T11:48:48;99506.72;;;1.62;70.73
16544;BME280;8384;47.996;7.786;2023-01-30T11:51:15;99452.13;;;2.20;68.32
16544;BME280;8384;47.996;7.786;2023-01-30T11:54:14;99475.13;;;2.01;69.58
16544;BME280;8384;47.996;7.786;2023-01-30T11:56:40;99479.19;;;2.27;68.59
16544;BME280;8384;47.996;7.786;2023-01-30T11:59:32;99447.97;;;1.87;70.01
16544;BME280;8384;47.996;7.786;2023-01-30T12:04:46;99457.78;;;2.25;69.18
16544;BME280;8384;47.996;7.786;2023-01-30T12:07:20;99384.81;;;1.60;70.36
16544;BME280;8384;47.996;7.786;2023-01-30T12:09:46;99410.41;;;2.01;69.21
16544;BME280;8384;47.996;7.786;2023-01-30T12:12:50;99471.06;;;2.42;68.52
16544;BME280;8384;47.996;7.786;2023-01-30T12:17:50;99477.25;;;2.05;69.08
16544;BME280;8384;47.996;7.786;2023-01-30T12:20:45;99458.06;;;2.15;68.42
16544;BME280;8384;47.996;7.786;2023-01-30T12:26:23;99468.34;;;2.42;68.85
16544;BME280;8384;47.996;7.786;2023-01-30T12:29:17;99449.44;;;2.05;69.35
16544;BME280;8384;47.996;7.786;2023-01-30T12:31:46;99469.66;;;2.46;69.11
16544;BME280;8384;47.996;7.786;2023-01-30T12:34:14;99432.13;;;2.51;67.74
16544;BME280;8384;47.996;7.786;2023-01-30T12:50:28;99401.78;;;2.70;68.00
16544;BME280;8384;47.996;7.786;2023-01-30T12:53:29;99437.66;;;2.86;68.52
16544;BME280;8384;47.996;7.786;2023-01-30T12:56:25;99444.53;;;2.89;68.79
16544;BME280;8384;47.996;7.786;2023-01-30T13:04:23;99388.31;;;2.49;71.44
16544;BME280;8384;47.996;7.786;2023-01-30T13:09:43;99432.78;;;2.75;70.97
16544;BME280;8384;47.996;7.786;2023-01-30T13:12:18;99418.59;;;2.29;72.64
16544;BME280;8384;47.996;7.786;2023-01-30T13:15:02;99440.13;;;2.44;72.93
16544;BME280;8384;47.996;7.786;2023-01-30T13:17:54;99416.09;;;2.28;73.76
16544;BME280;8384;47.996;7.786;2023-01-30T13:20:49;99344.00;;;1.78;74.09
16544;BME280;8384;47.996;7.786;2023-01-30T13:23:20;99363.22;;;1.75;74.97
16544;BME280;8384;47.996;7.786;2023-01-30T13:26:31;99433.31;;;2.27;75.29
16544;BME280;8384;47.996;7.786;2023-01-30T13:29:34;99420.47;;;2.29;76.79
16544;BME280;8384;47.996;7.786;2023-01-30T13:32:04;99394.78;;;2.33;75.73
16544;BME280;8384;47.996;7.786;2023-01-30T13:34:37;99426.84;;;2.43;75.17
16544;BME280;8384;47.996;7.786;2023-01-30T13:37:08;99427.75;;;2.50;75.70
16544;BME280;8384;47.996;7.786;2023-01-30T13:39:45;99411.88;;;2.40;76.20
16544;BME280;8384;47.996;7.786;2023-01-30T13:42:44;99420.69;;;2.49;75.88
16544;BME280;8384;47.996;7.786;2023-01-30T13:45:21;99404.25;;;2.44;76.18
16544;BME280;8384;47.996;7.786;2023-01-30T13:56:20;99408.72;;;2.00;75.65
16544;BME280;8384;47.996;7.786;2023-01-30T13:59:06;99446.44;;;2.30;75.46
16544;BME280;8384;47.996;7.786;2023-01-30T14:07:15;99419.66;;;2.13;76.17
16544;BME280;8384;47.996;7.786;2023-01-30T14:09:46;99345.88;;;1.47;76.73
16544;BME280;8384;47.996;7.786;2023-01-30T14:12:19;99369.44;;;1.75;76.83
16544;BME280;8384;47.996;7.786;2023-01-30T14:15:00;99449.72;;;2.10;77.02
16544;BME280;8384;47.996;7.786;2023-01-30T14:17:27;99474.91;;;2.17;76.82
16544;BME280;8384;47.996;7.786;2023-01-30T14:22:56;99461.63;;;2.16;76.99
16544;BME280;8384;47.996;7.786;2023-01-30T14:35:44;99468.47;;;2.18;77.43
16544;BME280;8384;47.996;7.786;2023-01-30T14:38:19;99478.91;;;2.21;78.42
16544;BME280;8384;47.996;7.786;2023-01-30T14:51:34;99512.66;;;2.32;79.09
16544;BME280;8384;47.996;7.786;2023-01-30T14:59:36;99506.16;;;2.12;79.93
16544;BME280;8384;47.996;7.786;2023-01-30T15:04:42;99527.47;;;2.06;80.13
16544;BME280;8384;47.996;7.786;2023-01-30T15:10:09;99482.00;;;1.73;81.37
16544;BME280;8384;47.996;7.786;2023-01-30T15:12:57;99500.31;;;1.93;79.95
16544;BME280;8384;47.996;7.786;2023-01-30T15:18:24;99556.31;;;2.21;81.21
16544;BME280;8384;47.996;7.786;2023-01-30T15:26:19;99525.31;;;1.72;81.87
16544;BME280;8384;47.996;7.786;2023-01-30T15:28:55;99577.50;;;2.24;82.14
16544;BME280;8384;47.996;7.786;2023-01-30T15:31:25;99593.03;;;2.07;82.10
16544;BME280;8384;47.996;7.786;2023-01-30T15:33:53;99580.28;;;2.01;82.52
16544;BME280;8384;47.996;7.786;2023-01-30T15:36:31;99580.75;;;2.04;82.83
16544;BME280;8384;47.996;7.786;2023-01-30T15:39:05;99550.41;;;1.87;82.58
16544;BME280;8384;47.996;7.786;2023-01-30T15:41:39;99581.75;;;2.03;83.41
16544;BME280;8384;47.996;7.786;2023-01-30T15:49:56;99580.66;;;2.13;82.92